Time;durP1;ratioP1;P1;durP2;ratioP2;P2;SDS_P1;SDS_P2;PMS_P1;PMS_P2;Temp;Humidity;BMP_temperature;BMP_pressure;BME280_temperature;BME280_humidity;BME280_pressure;Samples;Min_cycle;Max_cycle;Signal;HPM_P1;HPM_P2
2023/09/03 00:01:31;;;;;;;16.17;7.25;;;;;;;8.27;100.00;100747.13;4974620;28;20058;-64
2023/09/03 00:03:59;;;;;;;12.40;7.70;;;;;;;7.54;100.00;100630.13;4972089;28;20047;-64
2023/09/03 00:06:26;;;;;;;13.65;8.55;;;;;;;7.35;100.00;100601.63;4972925;28;20054;-61
2023/09/03 00:08:52;;;;;;;10.18;7.32;;;;;;;7.40;100.00;100604.72;4973397;28;20054;-60
2023/09/03 00:11:19;;;;;;;15.73;7.97;;;;;;;7.37;100.00;100594.31;4973248;28;20406;-59
2023/09/03 00:13:46;;;;;;;14.40;7.68;;;;;;;7.62;100.00;100651.59;4972354;28;20054;-58
2023/09/03 00:16:12;;;;;;;11.55;7.15;;;;;;;7.44;100.00;100626.63;4972254;28;20065;-60
2023/09/03 00:18:39;;;;;;;11.07;7.07;;;;;;;7.70;100.00;100645.53;4972504;28;20076;-61
2023/09/03 00:21:06;;;;;;;9.27;7.30;;;;;;;7.72;100.00;100650.75;4973173;28;20097;-61
2023/09/03 00:23:33;;;;;;;11.10;7.18;;;;;;;7.28;100.00;100597.84;4972816;28;20046;-64
2023/09/03 00:26:00;;;;;;;12.82;7.15;;;;;;;7.41;100.00;100617.06;4973407;28;20066;-60
2023/09/03 00:28:28;;;;;;;13.35;7.88;;;;;;;7.16;100.00;100581.16;4973627;28;20057;-61
2023/09/03 00:31:05;;;;;;;13.93;7.60;;;;;;;7.37;100.00;100615.69;4972971;28;20046;-60
2023/09/03 00:33:32;;;;;;;13.13;7.22;;;;;;;7.46;100.00;100624.63;4973056;28;20034;-65
2023/09/03 00:36:01;;;;;;;14.68;7.53;;;;;;;7.69;100.00;100646.53;4971789;28;20046;-59
2023/09/03 00:38:27;;;;;;;13.80;7.47;;;;;;;7.65;100.00;100659.34;4972848;28;20042;-60
2023/09/03 00:40:54;;;;;;;10.50;7.05;;;;;;;7.13;100.00;100573.41;4972641;28;20426;-59
2023/09/03 00:43:21;;;;;;;12.73;7.70;;;;;;;6.62;100.00;100497.22;4972140;28;20442;-61
2023/09/03 00:45:48;;;;;;;15.20;8.38;;;;;;;7.31;100.00;100583.38;4971702;28;20051;-59
2023/09/03 00:48:17;;;;;;;13.85;8.70;;;;;;;7.27;100.00;100573.97;4963235;28;20501;-60
2023/09/03 00:50:47;;;;;;;14.15;9.20;;;;;;;7.21;100.00;100567.38;4972390;28;20070;-59
2023/09/03 00:53:15;;;;;;;16.48;9.82;;;;;;;6.03;100.00;100378.25;4971018;28;20054;-63
2023/09/03 00:55:42;;;;;;;15.40;9.73;;;;;;;6.02;100.00;100386.38;4971919;28;20085;-64
2023/09/03 00:58:09;;;;;;;14.40;9.88;;;;;;;1.83;100.00;99718.72;4972622;28;20038;-64
2023/09/03 01:00:36;;;;;;;17.13;10.70;;;;;;;-0.63;100.00;99310.44;4971861;28;20498;-65
2023/09/03 01:03:04;;;;;;;19.10;11.32;;;;;;;1.06;100.00;99578.88;4972816;28;20054;-64
2023/09/03 01:09:23;;;;;;;18.42;11.27;;;;;;;-4.41;100.00;98697.38;4944481;28;20045;-64
2023/09/03 01:12:06;;;;;;;20.95;11.48;;;;;;;-4.92;100.00;98611.34;4972652;28;20399;-61
2023/09/03 01:15:05;;;;;;;16.70;12.23;;;;;;;-4.40;100.00;98692.97;4971692;28;20502;-61
2023/09/03 01:17:38;;;;;;;17.67;11.75;;;;;;;-4.93;100.00;98606.22;4970680;28;20051;-62
2023/09/03 01:20:10;;;;;;;17.10;12.75;;;;;;;-6.61;100.00;98352.97;4971716;28;20125;-62
2023/09/03 01:23:03;;;;;;;22.10;12.60;;;;;;;-8.27;100.00;98078.16;4970374;28;20061;-62
2023/09/03 01:26:35;;;;;;;16.92;12.40;;;;;;;-13.44;100.00;97256.91;4941914;28;20070;-62
2023/09/03 01:29:02;;;;;;;20.80;12.23;;;;;;;-10.10;100.00;97798.94;4949567;28;20047;-61
2023/09/03 01:31:30;;;;;;;21.65;12.48;;;;;;;-12.63;100.00;97391.09;4971628;28;20058;-62
2023/09/03 01:34:02;;;;;;;21.65;12.48;;;;;;;-17.52;100.00;96609.13;4970625;28;20057;-61
2023/09/03 01:36:33;;;;;;;15.88;12.57;;;;;;;-22.18;100.00;95861.78;4970718;28;20062;-62
2023/09/03 01:39:03;;;;;;;;;;;;;;;-15.23;100.00;96971.88;4972252;28;20051;-62
2023/09/03 01:41:32;;;;;;;15.90;11.77;;;;;;;-11.15;100.00;97625.44;4970950;28;19922;-63
2023/09/03 01:43:59;;;;;;;17.10;11.63;;;;;;;-12.26;100.00;97445.56;4970261;28;20043;-62
2023/09/03 01:46:40;;;;;;;20.52;12.18;;;;;;;-11.30;100.00;97593.63;4971225;28;20504;-62
2023/09/03 01:49:25;;;;;;;17.70;11.98;;;;;;;-11.65;100.00;97536.44;4971261;28;20077;-62
2023/09/03 01:52:03;;;;;;;15.95;11.93;;;;;;;-13.87;100.00;97166.81;4970709;28;20506;-62
2023/09/03 01:54:38;;;;;;;17.20;11.82;;;;;;;-12.06;100.00;97458.97;4971383;28;20533;-61
2023/09/03 01:57:18;;;;;;;17.42;11.38;;;;;;;-14.60;100.00;97050.34;4970502;28;20074;-62
2023/09/03 02:00:00;;;;;;;17.67;11.48;;;;;;;-15.22;100.00;96965.84;4970786;28;20054;-61
2023/09/03 02:02:29;;;;;;;18.60;12.48;;;;;;;-20.53;100.00;96118.47;4970596;28;20047;-60
2023/09/03 02:04:55;;;;;;;16.63;12.07;;;;;;;-29.01;100.00;94774.09;4970693;28;20410;-60
2023/09/03 02:07:22;;;;;;;17.45;12.40;;;;;;;-27.88;100.00;94945.84;4971185;28;20054;-59
2023/09/03 02:09:49;;;;;;;20.13;12.45;;;;;;;-27.44;100.00;95021.81;4970909;28;20054;-60
2023/09/03 02:12:16;;;;;;;19.80;12.13;;;;;;;-33.77;100.00;94026.41;4970079;28;20055;-67
2023/09/03 02:14:43;;;;;;;19.17;12.13;;;;;;;-33.07;100.00;94139.13;4971233;28;20082;-67
2023/09/03 02:17:11;;;;;;;17.27;12.23;;;;;;;-34.14;100.00;93989.69;4970932;28;20070;-67
2023/09/03 02:19:37;;;;;;;20.35;12.77;;;;;;;-40.64;100.00;92977.44;4970628;28;20046;-67
2023/09/03 02:22:04;;;;;;;16.48;12.20;;;;;;;-45.91;100.00;92160.31;4971055;28;20090;-68
2023/09/03 02:24:30;;;;;;;16.88;12.45;;;;;;;-44.67;100.00;92368.44;4970993;28;20136;-68
2023/09/03 02:26:58;;;;;;;19.13;11.73;;;;;;;-41.96;100.00;92789.88;4971004;28;20055;-67
2023/09/03 02:29:25;;;;;;;19.35;11.90;;;;;;;-41.18;100.00;92916.88;4970758;28;20059;-67
2023/09/03 02:31:51;;;;;;;16.52;12.32;;;;;;;-44.92;100.00;92326.78;4954361;28;20059;-67
2023/09/03 02:34:18;;;;;;;17.45;12.55;;;;;;;-41.48;100.00;92859.63;4971554;28;20071;-67
2023/09/03 02:36:44;;;;;;;21.00;14.02;;;;;;;-41.29;100.00;92899.16;4970825;28;20050;-66
2023/09/03 02:39:11;;;;;;;19.52;13.20;;;;;;;-41.34;100.00;92896.06;4970736;28;20066;-66
2023/09/03 02:41:37;;;;;;;18.85;11.80;;;;;;;-40.84;100.00;92987.13;4971848;28;20081;-68
2023/09/03 02:44:06;;;;;;;17.50;11.70;;;;;;;-33.57;100.00;94135.25;4970753;28;20043;-68
2023/09/03 02:46:33;;;;;;;17.08;12.73;;;;;;;-33.22;100.00;94198.72;4970920;28;20109;-67
2023/09/03 02:48:59;;;;;;;14.48;11.15;;;;;;;-34.58;100.00;93969.81;4970816;28;21659;-67
2023/09/03 02:51:26;;;;;;;15.25;11.23;;;;;;;-34.00;100.00;94064.66;4971142;28;20502;-65
2023/09/03 02:53:54;;;;;;;20.40;11.18;;;;;;;-29.17;100.00;94820.09;4969809;28;20050;-66
2023/09/03 02:56:21;;;;;;;16.05;11.13;;;;;;;-30.24;100.00;94659.91;4969816;28;20055;-68
2023/09/03 02:58:50;;;;;;;16.52;11.25;;;;;;;-31.31;100.00;94497.44;4970289;28;20066;-67
2023/09/03 03:01:19;;;;;;;14.57;11.13;;;;;;;-30.59;100.00;94621.31;4970609;28;20054;-67
2023/09/03 03:03:46;;;;;;;14.68;10.85;;;;;;;-29.41;100.00;94806.91;4969978;28;20050;-69
2023/09/03 03:06:14;;;;;;;13.85;9.63;;;;;;;-29.52;100.00;94815.69;4969699;28;20050;-66
2023/09/03 03:08:41;;;;;;;15.35;10.32;;;;;;;-30.42;100.00;94670.69;4970373;28;20046;-67
2023/09/03 03:11:10;;;;;;;17.83;10.45;;;;;;;-28.96;100.00;94899.50;4971325;28;20042;-68
2023/09/03 03:13:40;;;;;;;18.15;10.73;;;;;;;-28.42;100.00;94975.91;4970582;28;20042;-62
2023/09/03 03:16:12;;;;;;;12.98;10.23;;;;;;;-28.02;100.00;95039.53;4970550;28;20502;-63
2023/09/03 03:18:41;;;;;;;13.38;9.65;;;;;;;-22.93;100.00;95840.22;4970466;28;20125;-62
2023/09/03 03:21:18;;;;;;;17.95;10.13;;;;;;;-23.26;100.00;95797.84;4970720;28;20039;-62
2023/09/03 03:23:47;;;;;;;13.27;9.98;;;;;;;-24.36;100.00;95630.91;4960227;28;20411;-62
2023/09/03 03:26:14;;;;;;;16.05;10.63;;;;;;;-24.26;100.00;95656.59;4950850;28;20098;-62
2023/09/03 03:28:40;;;;;;;16.15;9.95;;;;;;;-25.15;100.00;95532.59;4953259;28;20050;-62
2023/09/03 03:31:15;;;;;;;13.30;9.65;;;;;;;-28.87;100.00;94944.31;4954999;28;20187;-62
2023/09/03 03:33:43;;;;;;;13.35;9.75;;;;;;;-26.58;100.00;95300.09;4954349;28;20488;-61
2023/09/03 03:36:13;;;;;;;16.65;9.63;;;;;;;-25.80;100.00;95434.56;4954707;28;20047;-61
2023/09/03 03:38:40;;;;;;;19.65;9.88;;;;;;;-26.45;100.00;95340.75;4953874;28;20069;-62
2023/09/03 03:41:11;;;;;;;14.95;8.82;;;;;;;-25.84;100.00;95433.06;4955218;28;20078;-62
2023/09/03 03:43:40;;;;;;;12.05;8.75;;;;;;;-21.86;100.00;96065.19;4954267;28;20387;-60
2023/09/03 03:46:08;;;;;;;13.90;8.85;;;;;;;-22.48;100.00;95964.03;4953406;28;20047;-62
2023/09/03 03:48:36;;;;;;;13.05;8.65;;;;;;;-19.15;100.00;96489.41;4954631;28;20043;-62
2023/09/03 03:51:03;;;;;;;13.38;8.75;;;;;;;-16.15;100.00;96968.75;4954497;28;20047;-61
2023/09/03 03:53:30;;;;;;;12.98;8.38;;;;;;;-16.57;100.00;96913.78;4953882;28;20423;-61
2023/09/03 03:56:03;;;;;;;13.95;8.20;;;;;;;-16.64;100.00;96899.66;4953940;28;20070;-63
2023/09/03 03:58:32;;;;;;;12.32;7.40;;;;;;;-16.40;100.00;96951.31;4954280;28;20047;-62
2023/09/03 04:00:59;;;;;;;11.48;8.02;;;;;;;-16.67;100.00;96910.09;4953971;28;20055;-62
2023/09/03 04:03:27;;;;;;;14.57;8.20;;;;;;;-18.17;100.00;96686.06;4953089;28;20075;-63
2023/09/03 04:05:56;;;;;;;10.82;8.15;;;;;;;-17.76;100.00;96749.56;4952844;28;20070;-61
2023/09/03 04:08:22;;;;;;;11.88;8.40;;;;;;;-17.48;100.00;96794.97;4954302;28;20511;-62
2023/09/03 04:10:59;;;;;;;12.77;7.85;;;;;;;-18.11;100.00;96702.84;4953885;28;20051;-62
2023/09/03 04:13:26;;;;;;;16.25;8.63;;;;;;;-17.88;100.00;96738.25;4959532;28;20391;-61
2023/09/03 04:15:54;;;;;;;11.63;8.20;;;;;;;-18.25;100.00;96693.34;4973242;28;20047;-65
2023/09/03 04:18:22;;;;;;;12.93;8.05;;;;;;;-18.21;100.00;96707.59;4973396;28;20499;-64
2023/09/03 04:20:51;;;;;;;13.15;8.07;;;;;;;-17.64;100.00;96806.94;4973074;28;20098;-63
2023/09/03 04:23:18;;;;;;;11.50;7.40;;;;;;;-17.90;100.00;96779.25;4973255;28;20475;-65
2023/09/03 04:25:45;;;;;;;10.77;7.40;;;;;;;-17.95;100.00;96776.13;4972238;28;20491;-64
2023/09/03 04:28:12;;;;;;;12.75;7.72;;;;;;;-17.63;100.00;96827.34;4973676;28;20047;-63
2023/09/03 04:30:39;;;;;;;10.23;7.30;;;;;;;-17.42;100.00;96863.78;4973380;28;20574;-64
2023/09/03 04:33:07;;;;;;;13.98;7.45;;;;;;;-17.47;100.00;96853.81;4973631;28;20488;-64
2023/09/03 04:35:34;;;;;;;12.70;6.90;;;;;;;-16.24;100.00;97047.91;4972333;28;20051;-64
2023/09/03 04:38:02;;;;;;;13.10;7.22;;;;;;;-16.11;100.00;97070.34;4972918;28;20487;-64
2023/09/03 04:40:35;;;;;;;10.30;6.57;;;;;;;-16.66;100.00;96992.06;4972046;28;20061;-64
2023/09/03 04:43:03;;;;;;;9.85;7.07;;;;;;;-16.47;100.00;97020.97;4972830;28;20054;-64
2023/09/03 04:45:29;;;;;;;10.48;6.80;;;;;;;-16.10;100.00;97074.56;4972945;28;20054;-64
2023/09/03 04:47:57;;;;;;;12.30;7.20;;;;;;;-15.91;100.00;97100.88;4972863;28;20046;-65
2023/09/03 04:50:25;;;;;;;12.18;7.47;;;;;;;-12.69;100.00;97631.63;4972398;28;20049;-65
2023/09/03 04:52:55;;;;;;;12.02;7.13;;;;;;;-12.51;100.00;97652.91;4973080;28;20467;-65
2023/09/03 04:55:23;;;;;;;11.17;6.57;;;;;;;-9.74;100.00;98106.09;4972491;28;20051;-64
2023/09/03 04:57:50;;;;;;;13.20;6.88;;;;;;;-10.46;100.00;98002.56;4971390;28;20074;-64
2023/09/03 05:00:16;;;;;;;10.27;7.13;;;;;;;-9.48;100.00;98145.97;4972686;28;20042;-64
2023/09/03 05:02:43;;;;;;;10.43;7.18;;;;;;;-10.02;100.00;98083.69;4972195;28;20498;-64
2023/09/03 05:05:10;;;;;;;11.52;6.70;;;;;;;-10.29;100.00;98042.16;4972490;28;20047;-64
2023/09/03 05:07:37;;;;;;;10.55;6.78;;;;;;;-10.88;100.00;97953.41;4972558;28;20051;-64
2023/09/03 05:10:04;;;;;;;9.18;6.63;;;;;;;-9.42;100.00;98196.66;4972282;28;20097;-64
2023/09/03 05:12:33;;;;;;;11.25;7.20;;;;;;;-9.30;100.00;98211.44;4972066;28;20502;-64
2023/09/03 05:15:00;;;;;;;11.18;6.28;;;;;;;-10.34;100.00;98057.16;4971541;28;20051;-64
2023/09/03 05:17:26;;;;;;;10.27;6.50;;;;;;;-10.53;100.00;98031.53;4972429;28;20462;-63
2023/09/03 05:19:53;;;;;;;9.80;6.57;;;;;;;-10.23;100.00;98094.47;4972441;28;20422;-64
2023/09/03 05:22:20;;;;;;;8.93;6.38;;;;;;;-10.49;100.00;98057.16;4972474;28;20043;-63
2023/09/03 05:24:46;;;;;;;12.40;6.57;;;;;;;-10.33;100.00;98064.84;4971622;28;20452;-63
2023/09/03 05:27:13;;;;;;;10.10;6.75;;;;;;;-9.84;100.00;98123.19;4972250;28;20051;-63
2023/09/03 05:29:40;;;;;;;18.27;6.35;;;;;;;-5.45;100.00;98810.28;4972623;28;20047;-63
2023/09/03 05:32:07;;;;;;;15.23;6.82;;;;;;;-4.12;100.00;99037.38;4972252;28;20458;-64
2023/09/03 05:34:33;;;;;;;13.35;8.73;;;;;;;-3.87;100.00;99084.44;4972065;28;20414;-63
2023/09/03 05:37:00;;;;;;;14.68;6.90;;;;;;;-3.47;100.00;99123.56;4971120;28;20388;-63
2023/09/03 05:39:28;;;;;;;8.98;5.63;;;;;;;0.08;100.00;99697.56;4971631;28;20114;-63
2023/09/03 05:41:55;;;;;;;9.23;5.70;;;;;;;0.53;100.00;99783.72;4971782;28;20121;-64
2023/09/03 05:44:21;;;;;;;9.10;5.13;;;;;;;0.70;100.00;99813.25;4971427;28;20102;-67
2023/09/03 05:46:48;;;;;;;7.18;4.43;;;;;;;3.05;100.00;100177.19;4970903;28;20066;-67
2023/09/03 05:49:14;;;;;;;7.20;4.65;;;;;;;6.21;100.00;100661.59;4959077;28;20103;-68
2023/09/03 05:51:41;;;;;;;11.20;5.43;;;;;;;6.39;100.00;100699.16;4960216;28;20114;-65
2023/09/03 05:54:08;;;;;;;9.65;4.85;;;;;;;5.80;100.00;100617.25;4972436;28;20138;-67
2023/09/03 05:56:35;;;;;;;11.05;4.93;;;;;;;5.97;100.00;100655.72;4970850;28;20146;-67
2023/09/03 05:59:05;;;;;;;10.45;4.25;;;;;;;6.58;100.00;100772.19;4970961;28;20050;-69
2023/09/03 06:01:33;;;;;;;10.23;4.57;;;;;;;6.97;100.00;100837.19;4971366;28;20101;-67
2023/09/03 06:04:04;;;;;;;10.05;4.22;;;;;;;7.72;100.00;100955.19;4969687;28;20084;-64
2023/09/03 06:06:37;;;;;;;7.75;4.05;;;;;;;8.74;100.00;101124.25;4971898;28;20074;-59
2023/09/03 06:09:05;;;;;;;8.60;3.83;;;;;;;8.33;100.00;101057.47;4972139;28;20054;-60
2023/09/03 06:11:33;;;;;;;11.38;3.63;;;;;;;8.64;100.00;101092.13;4971317;28;20503;-59
2023/09/03 06:14:00;;;;;;;7.63;3.47;;;;;;;8.87;100.00;101140.06;4969961;28;20141;-58
2023/09/03 06:16:27;;;;;;;9.65;3.97;;;;;;;9.15;100.00;101183.88;4969704;28;20042;-65
2023/09/03 06:18:54;;;;;;;8.05;3.60;;;;;;;8.98;100.00;101153.28;4971160;28;20068;-65
2023/09/03 06:21:21;;;;;;;8.48;4.28;;;;;;;9.79;100.00;101263.72;4970277;28;20461;-64
2023/09/03 06:23:47;;;;;;;8.55;4.03;;;;;;;9.95;100.00;101288.09;4971428;28;20054;-65
2023/09/03 06:26:14;;;;;;;12.45;4.28;;;;;;;10.39;100.00;101351.97;4971508;28;20050;-65
2023/09/03 06:28:41;;;;;;;9.75;4.10;;;;;;;10.64;100.00;101380.91;4971976;28;20101;-63
2023/09/03 06:31:08;;;;;;;10.82;4.10;;;;;;;10.76;100.00;101389.66;4971588;28;20047;-64
2023/09/03 06:33:38;;;;;;;8.00;4.15;;;;;;;11.28;100.00;101461.72;4971183;28;20047;-64
2023/09/03 06:36:05;;;;;;;11.95;4.20;;;;;;;11.41;100.00;101489.94;4971307;28;20379;-64
2023/09/03 06:38:31;;;;;;;9.02;3.70;;;;;;;10.32;100.00;101361.59;4971346;28;20399;-64
2023/09/03 06:40:58;;;;;;;12.02;4.18;;;;;;;10.90;100.00;101431.28;4971332;28;20046;-64
2023/09/03 06:43:24;;;;;;;10.10;4.25;;;;;;;11.04;100.00;101462.19;4971390;28;20047;-64
2023/09/03 06:45:51;;;;;;;10.32;4.25;;;;;;;11.22;100.00;101482.78;4971228;28;20047;-64
2023/09/03 06:48:17;;;;;;;11.57;6.25;;;;;;;11.84;100.00;101539.56;4970825;28;20395;-64
2023/09/03 06:50:44;;;;;;;22.67;13.40;;;;;;;12.40;100.00;101619.25;4970842;28;20058;-66
2023/09/03 06:53:11;;;;;;;10.13;4.20;;;;;;;12.73;100.00;101670.81;4970733;28;20051;-65
2023/09/03 06:55:38;;;;;;;9.70;3.88;;;;;;;13.22;100.00;101692.88;4971323;28;20078;-64
2023/09/03 06:58:06;;;;;;;8.82;3.92;;;;;;;13.72;100.00;101746.22;4971376;28;20094;-64
2023/09/03 07:00:34;;;;;;;13.32;3.78;;;;;;;13.90;100.00;101781.28;4971324;28;20716;-64
2023/09/03 07:03:01;;;;;;;10.77;3.55;;;;;;;14.10;100.00;101798.13;4972348;28;20057;-64
2023/09/03 07:05:30;;;;;;;6.15;3.13;;;;;;;13.97;100.00;101813.88;4974441;28;20047;-61
2023/09/03 07:07:56;;;;;;;5.35;3.50;;;;;;;14.04;100.00;101828.44;4974816;28;20054;-62
2023/09/03 07:10:23;;;;;;;8.68;3.42;;;;;;;14.29;100.00;101840.28;4974790;28;20050;-62
2023/09/03 07:12:50;;;;;;;9.05;3.78;;;;;;;14.87;100.00;101855.84;4974278;28;20051;-61
2023/09/03 07:15:16;;;;;;;7.57;3.45;;;;;;;15.33;100.00;101860.94;4974208;28;20078;-61
2023/09/03 07:17:43;;;;;;;8.00;2.92;;;;;;;15.84;100.00;101880.72;4974601;28;20410;-61
2023/09/03 07:20:10;;;;;;;11.30;3.17;;;;;;;16.28;100.00;101869.59;4975114;28;20466;-61
2023/09/03 07:22:37;;;;;;;7.68;2.50;;;;;;;16.40;100.00;101868.22;4974105;28;20503;-62
2023/09/03 07:25:05;;;;;;;8.27;2.90;;;;;;;16.43;100.00;101873.28;4974001;28;20051;-61
2023/09/03 07:27:33;;;;;;;6.25;2.50;;;;;;;16.56;100.00;101879.06;4974411;28;20063;-62
2023/09/03 07:29:59;;;;;;;5.30;2.50;;;;;;;16.32;100.00;101882.63;4974218;28;20050;-61
2023/09/03 07:32:26;;;;;;;11.43;2.72;;;;;;;16.34;100.00;101891.44;4974161;28;20097;-62
2023/09/03 07:34:53;;;;;;;6.85;2.92;;;;;;;16.37;100.00;101890.25;4974344;28;20047;-59
2023/09/03 07:37:22;;;;;;;5.18;2.55;;;;;;;16.46;100.00;101885.66;4973101;28;20414;-61
2023/09/03 07:39:48;;;;;;;5.78;2.25;;;;;;;16.59;100.00;101877.88;4973699;28;20499;-61
2023/09/03 07:42:15;;;;;;;6.35;2.75;;;;;;;17.19;100.00;101871.09;4974145;28;20101;-62
2023/09/03 07:44:42;;;;;;;4.78;3.00;;;;;;;17.97;100.00;101871.00;4974042;28;20466;-62
2023/09/03 07:47:08;;;;;;;6.47;2.10;;;;;;;18.18;100.00;101870.38;4974678;28;20129;-61
2023/09/03 07:49:35;;;;;;;5.20;2.63;;;;;;;18.72;100.00;101877.47;4973973;28;20047;-61
2023/09/03 07:52:01;;;;;;;7.93;2.28;;;;;;;18.55;100.00;101874.97;4973961;28;20058;-64
2023/09/03 07:54:28;;;;;;;4.70;2.50;;;;;;;18.51;100.00;101880.91;4973525;28;20097;-64
2023/09/03 07:56:55;;;;;;;4.30;2.15;;;;;;;18.27;100.00;101887.41;4974007;28;20547;-64
2023/09/03 07:59:21;;;;;;;7.30;2.10;;;;;;;18.27;100.00;101882.00;4973625;28;20078;-61
2023/09/03 08:01:48;;;;;;;11.75;2.45;;;;;;;18.08;100.00;101881.44;4972980;28;20046;-62
2023/09/03 08:04:15;;;;;;;3.15;1.85;;;;;;;17.93;100.00;101882.44;4973332;28;20542;-61
2023/09/03 08:06:42;;;;;;;7.07;2.03;;;;;;;18.12;100.00;101902.81;4973569;28;20043;-62
2023/09/03 08:09:09;;;;;;;6.93;2.10;;;;;;;18.44;100.00;101913.41;4974232;28;20117;-62
2023/09/03 08:11:36;;;;;;;7.97;1.80;;;;;;;18.44;100.00;101915.28;4973876;28;20093;-62
2023/09/03 08:14:05;;;;;;;6.88;2.15;;;;;;;18.53;100.00;101917.75;4972542;28;20046;-61
2023/09/03 08:16:31;;;;;;;5.95;2.00;;;;;;;18.62;100.00;101917.66;4973540;28;20062;-66
2023/09/03 08:18:58;;;;;;;4.20;1.95;;;;;;;18.45;99.89;101926.00;4973830;28;20046;-64
2023/09/03 08:21:25;;;;;;;4.40;2.08;;;;;;;18.63;97.87;101916.66;4973856;28;20106;-64
2023/09/03 08:23:51;;;;;;;7.75;2.45;;;;;;;18.65;95.93;101917.31;4973536;28;20110;-64
2023/09/03 08:26:19;;;;;;;2.78;1.73;;;;;;;18.76;96.08;101914.16;4973452;28;20050;-64
2023/09/03 08:28:46;;;;;;;10.02;1.58;;;;;;;19.10;89.57;101912.78;4973243;28;20047;-64
2023/09/03 08:31:13;;;;;;;4.45;1.80;;;;;;;19.44;85.18;101915.75;4972688;28;20414;-64
2023/09/03 08:33:40;;;;;;;4.65;1.70;;;;;;;19.46;80.88;101913.69;4973940;28;20058;-63
2023/09/03 08:36:07;;;;;;;4.25;1.38;;;;;;;19.25;82.15;101925.38;4974095;28;20042;-64
2023/09/03 08:38:33;;;;;;;3.80;1.60;;;;;;;19.36;79.95;101924.03;4973770;28;20153;-63
2023/09/03 08:41:01;;;;;;;8.40;1.77;;;;;;;19.27;80.33;101908.84;4973589;28;20051;-64
2023/09/03 08:43:29;;;;;;;4.35;1.40;;;;;;;19.29;82.06;101912.22;4973896;28;20038;-67
2023/09/03 08:46:02;;;;;;;4.32;1.40;;;;;;;19.35;81.62;101908.75;4973819;28;20038;-64
2023/09/03 08:48:28;;;;;;;6.47;1.65;;;;;;;18.90;84.20;101907.06;4973379;28;20047;-64
2023/09/03 08:50:56;;;;;;;6.30;2.03;;;;;;;18.71;88.04;101909.25;4973154;28;20058;-64
2023/09/03 08:53:23;;;;;;;4.20;1.58;;;;;;;19.15;81.85;101908.47;4973207;28;20053;-64
2023/09/03 08:55:50;;;;;;;7.20;1.75;;;;;;;19.04;81.48;101906.25;4973049;28;20042;-64
2023/09/03 08:58:17;;;;;;;6.25;1.50;;;;;;;19.12;82.12;101914.28;4972976;28;20051;-59
2023/09/03 09:00:43;;;;;;;3.28;1.30;;;;;;;19.20;80.14;101905.19;4962293;28;20047;-59
2023/09/03 09:03:13;;;;;;;7.40;1.58;;;;;;;19.50;75.69;101893.22;4954889;28;20503;-59
2023/09/03 09:05:45;;;;;;;3.67;1.10;;;;;;;19.99;74.09;101894.41;4937120;29;20039;-59
2023/09/03 09:08:13;;;;;;;6.85;1.85;;;;;;;19.81;72.44;101896.75;4953696;28;20547;-62
2023/09/03 09:10:43;;;;;;;6.65;1.50;;;;;;;19.65;72.72;101897.78;4952927;28;20051;-62
2023/09/03 09:13:11;;;;;;;4.68;1.40;;;;;;;19.58;74.36;101896.88;4957175;28;20050;-61
2023/09/03 09:15:42;;;;;;;5.53;1.55;;;;;;;19.24;77.11;101903.78;4971987;28;20067;-61
2023/09/03 09:18:09;;;;;;;;;;;;;;;19.31;77.41;101891.13;4972411;28;20047;-60
2023/09/03 09:20:40;;;;;;;5.45;1.50;;;;;;;19.75;76.54;101903.81;4972772;28;20559;-62
2023/09/03 09:23:10;;;;;;;6.57;1.58;;;;;;;19.87;72.52;101901.44;4972709;28;20459;-62
2023/09/03 09:25:37;;;;;;;7.90;1.63;;;;;;;19.36;74.17;101909.59;4972445;28;20065;-61
2023/09/03 09:28:12;;;;;;;4.43;0.98;;;;;;;19.74;73.40;101902.13;4970532;28;20046;-64
2023/09/03 09:30:52;;;;;;;4.70;1.08;;;;;;;19.67;72.01;101893.00;4971373;28;20050;-62
2023/09/03 09:33:19;;;;;;;5.55;2.13;;;;;;;19.61;70.87;101901.94;4953209;28;20063;-62
2023/09/03 09:35:46;;;;;;;3.35;1.40;;;;;;;19.34;69.53;101903.47;4959462;28;20050;-62
2023/09/03 09:38:13;;;;;;;5.00;1.52;;;;;;;19.71;69.24;101916.13;4972690;28;20109;-61
2023/09/03 09:40:40;;;;;;;5.28;1.65;;;;;;;19.95;70.21;101929.38;4972675;28;20055;-62
2023/09/03 09:43:08;;;;;;;7.78;1.40;;;;;;;19.84;74.35;101923.59;4975847;28;20047;-61
2023/09/03 09:45:51;;;;;;;11.75;1.92;;;;;;;20.12;75.08;101919.06;4972305;28;20066;-60
2023/09/03 09:48:18;;;;;;;4.82;1.60;;;;;;;21.30;70.02;101914.75;4972308;28;20470;-60
2023/09/03 09:50:47;;;;;;;7.05;1.90;;;;;;;21.14;69.14;101909.63;4972025;28;20050;-60
2023/09/03 09:53:22;;;;;;;10.07;2.08;;;;;;;21.65;63.33;101911.94;4964188;28;20054;-60
2023/09/03 09:55:59;;;;;;;4.50;1.00;;;;;;;21.41;58.25;101917.94;4935727;28;20062;-60
2023/09/03 09:58:40;;;;;;;5.22;1.33;;;;;;;21.77;55.76;101915.78;4962989;28;20070;-60
2023/09/03 10:01:08;;;;;;;1.80;0.95;;;;;;;21.56;53.22;101921.34;4956133;28;20102;-60
2023/09/03 10:03:46;;;;;;;6.60;1.30;;;;;;;21.94;53.20;101916.22;4955588;28;20047;-61
2023/09/03 10:06:19;;;;;;;4.18;1.20;;;;;;;22.26;52.07;101909.16;4971198;28;20053;-60
2023/09/03 10:08:47;;;;;;;10.45;1.60;;;;;;;23.16;50.32;101908.69;4971595;28;20047;-60
2023/09/03 10:11:18;;;;;;;2.58;1.00;;;;;;;23.77;49.40;101902.72;4971720;28;20129;-61
2023/09/03 10:13:46;;;;;;;11.02;2.08;;;;;;;24.49;46.49;101903.28;4971783;28;20117;-59
2023/09/03 10:16:17;;;;;;;7.18;1.85;;;;;;;25.08;45.36;101898.28;4971743;28;20406;-62
2023/09/03 10:18:48;;;;;;;4.00;1.55;;;;;;;25.09;42.89;101900.78;4971599;28;20053;-62
2023/09/03 10:21:24;;;;;;;4.80;1.85;;;;;;;24.60;44.86;101898.97;4960030;28;20395;-59
2023/09/03 10:24:15;;;;;;;2.70;1.30;;;;;;;24.15;44.49;101890.88;4952631;28;20051;-59
2023/09/03 10:26:45;;;;;;;4.32;1.10;;;;;;;24.95;43.98;101895.66;4952155;28;20122;-60
2023/09/03 10:29:17;;;;;;;2.67;1.15;;;;;;;24.35;44.15;101902.53;4952503;28;20043;-59
2023/09/03 10:31:44;;;;;;;4.35;1.05;;;;;;;23.87;44.07;101896.78;4966046;28;20462;-59
2023/09/03 10:34:14;;;;;;;6.03;1.80;;;;;;;24.57;44.77;101905.72;4979854;28;20107;-59
2023/09/03 10:37:03;;;;;;;4.15;1.40;;;;;;;24.25;43.93;101904.09;4980403;28;20053;-59
2023/09/03 10:39:31;;;;;;;3.55;1.17;;;;;;;24.40;43.38;101916.47;4980570;28;20055;-58
2023/09/03 10:42:18;;;;;;;3.65;1.15;;;;;;;24.49;43.67;101903.28;4995745;28;20105;-59
2023/09/03 10:44:50;;;;;;;3.38;1.10;;;;;;;24.35;43.94;101920.88;4980844;28;20110;-59
2023/09/03 10:47:18;;;;;;;8.27;1.40;;;;;;;23.21;44.52;101917.91;4971902;28;20046;-61
2023/09/03 10:49:49;;;;;;;2.97;1.23;;;;;;;22.57;45.61;101913.19;4966039;28;20125;-61
2023/09/03 10:52:31;;;;;;;7.30;1.50;;;;;;;22.03;46.59;101904.06;4951767;28;20050;-62
2023/09/03 10:55:10;;;;;;;5.07;1.50;;;;;;;23.24;43.91;101909.28;4952100;28;20047;-61
2023/09/03 10:57:37;;;;;;;2.95;1.20;;;;;;;22.85;44.38;101907.47;4951954;28;20067;-61
2023/09/03 11:00:06;;;;;;;4.65;1.63;;;;;;;23.15;44.48;101913.28;4951758;28;20193;-61
2023/09/03 11:02:35;;;;;;;5.80;1.55;;;;;;;22.80;43.91;101915.44;4951871;28;20047;-61
2023/09/03 11:05:19;;;;;;;6.15;1.42;;;;;;;23.49;42.58;101920.31;4951409;28;20110;-61
2023/09/03 11:08:06;;;;;;;3.95;1.40;;;;;;;22.77;43.10;101927.66;4951744;28;20130;-63
2023/09/03 11:10:32;;;;;;;4.47;1.15;;;;;;;23.00;43.02;101920.91;4951866;28;20055;-61
2023/09/03 11:13:00;;;;;;;4.63;1.45;;;;;;;23.16;42.01;101925.94;4954614;28;20074;-62
2023/09/03 11:15:27;;;;;;;3.55;1.15;;;;;;;23.02;41.68;101922.38;4971409;28;20503;-61
2023/09/03 11:17:56;;;;;;;5.25;1.23;;;;;;;23.50;41.16;101918.41;4971259;28;20042;-61
2023/09/03 11:20:31;;;;;;;3.78;1.05;;;;;;;23.00;41.83;101931.84;4971185;28;20086;-61
2023/09/03 11:23:14;;;;;;;2.97;1.20;;;;;;;22.82;43.03;101926.19;4955994;28;20039;-61
2023/09/03 11:25:41;;;;;;;7.60;1.30;;;;;;;22.91;42.47;101933.09;4971497;28;20086;-61
2023/09/03 11:28:13;;;;;;;7.72;1.38;;;;;;;22.64;42.53;101937.81;4971063;28;20042;-62
2023/09/03 11:30:42;;;;;;;4.03;1.00;;;;;;;22.05;43.71;101929.31;4971062;28;20098;-61